sensor_id;sensor_type;location;lat;lon;timestamp;temperature;humidity
33903;DHT22;20194;50.950;5.346;2023-03-16T00:02:00;7.30;2.10
33903;DHT22;20194;50.950;5.346;2023-03-16T00:04:26;7.00;2.60
33903;DHT22;20194;50.950;5.346;2023-03-16T00:06:52;7.00;7.90
33903;DHT22;20194;50.950;5.346;2023-03-16T00:09:17;6.90;9.50
33903;DHT22;20194;50.950;5.346;2023-03-16T00:11:43;7.00;9.60
33903;DHT22;20194;50.950;5.346;2023-03-16T00:14:09;7.00;7.20
33903;DHT22;20194;50.950;5.346;2023-03-16T00:16:34;7.20;6.40
33903;DHT22;20194;50.950;5.346;2023-03-16T00:19:01;7.40;3.30
33903;DHT22;20194;50.950;5.346;2023-03-16T00:21:30;7.40;1.20
33903;DHT22;20194;50.950;5.346;2023-03-16T00:23:57;7.50;1.00
33903;DHT22;20194;50.950;5.346;2023-03-16T00:26:23;7.70;1.00
33903;DHT22;20194;50.950;5.346;2023-03-16T00:28:50;7.70;1.00
33903;DHT22;20194;50.950;5.346;2023-03-16T00:31:19;7.60;1.00
33903;DHT22;20194;50.950;5.346;2023-03-16T00:33:45;7.50;1.20
33903;DHT22;20194;50.950;5.346;2023-03-16T00:36:11;7.40;1.00
33903;DHT22;20194;50.950;5.346;2023-03-16T00:38:39;7.10;6.40
33903;DHT22;20194;50.950;5.346;2023-03-16T00:41:10;7.00;8.30
33903;DHT22;20194;50.950;5.346;2023-03-16T00:43:39;7.00;8.80
33903;DHT22;20194;50.950;5.346;2023-03-16T00:46:13;7.00;7.70
33903;DHT22;20194;50.950;5.346;2023-03-16T00:48:41;7.10;8.80
33903;DHT22;20194;50.950;5.346;2023-03-16T00:51:10;7.20;7.40
33903;DHT22;20194;50.950;5.346;2023-03-16T00:53:38;7.20;6.90
33903;DHT22;20194;50.950;5.346;2023-03-16T00:56:05;7.30;6.80
33903;DHT22;20194;50.950;5.346;2023-03-16T00:58:32;7.40;5.50
33903;DHT22;20194;50.950;5.346;2023-03-16T01:01:13;7.40;2.50
33903;DHT22;20194;50.950;5.346;2023-03-16T01:03:40;7.20;1.10
33903;DHT22;20194;50.950;5.346;2023-03-16T01:06:12;7.20;5.10
33903;DHT22;20194;50.950;5.346;2023-03-16T01:08:38;7.20;4.80
33903;DHT22;20194;50.950;5.346;2023-03-16T01:11:06;7.10;6.30
33903;DHT22;20194;50.950;5.346;2023-03-16T01:13:33;7.10;4.60
33903;DHT22;20194;50.950;5.346;2023-03-16T01:15:59;6.90;7.50
33903;DHT22;20194;50.950;5.346;2023-03-16T01:18:26;6.80;8.20
33903;DHT22;20194;50.950;5.346;2023-03-16T01:20:52;6.80;7.70
33903;DHT22;20194;50.950;5.346;2023-03-16T01:23:19;6.90;6.40
33903;DHT22;20194;50.950;5.346;2023-03-16T01:25:45;6.80;6.90
33903;DHT22;20194;50.950;5.346;2023-03-16T01:28:22;6.80;5.10
33903;DHT22;20194;50.950;5.346;2023-03-16T01:30:52;6.70;5.80
33903;DHT22;20194;50.950;5.346;2023-03-16T01:33:24;6.80;9.00
33903;DHT22;20194;50.950;5.346;2023-03-16T01:36:02;6.70;6.90
33903;DHT22;20194;50.950;5.346;2023-03-16T01:38:28;6.70;8.60
33903;DHT22;20194;50.950;5.346;2023-03-16T01:40:55;6.70;7.60
33903;DHT22;20194;50.950;5.346;2023-03-16T01:43:24;6.80;9.00
33903;DHT22;20194;50.950;5.346;2023-03-16T01:56:57;6.80;6.70
33903;DHT22;20194;50.950;5.346;2023-03-16T01:59:28;6.80;6.30
33903;DHT22;20194;50.950;5.346;2023-03-16T02:01:56;6.80;5.80
33903;DHT22;20194;50.950;5.346;2023-03-16T02:07:01;6.90;5.90
33903;DHT22;20194;50.950;5.346;2023-03-16T02:09:29;7.00;5.50
33903;DHT22;20194;50.950;5.346;2023-03-16T02:11:56;6.90;4.80
33903;DHT22;20194;50.950;5.346;2023-03-16T02:14:22;6.90;7.10
33903;DHT22;20194;50.950;5.346;2023-03-16T02:16:49;6.90;4.50
33903;DHT22;20194;50.950;5.346;2023-03-16T02:19:33;6.90;5.90
33903;DHT22;20194;50.950;5.346;2023-03-16T02:22:03;7.10;5.60
33903;DHT22;20194;50.950;5.346;2023-03-16T02:24:30;7.10;1.20
33903;DHT22;20194;50.950;5.346;2023-03-16T02:27:00;6.90;4.70
33903;DHT22;20194;50.950;5.346;2023-03-16T02:32:27;7.00;5.00
33903;DHT22;20194;50.950;5.346;2023-03-16T02:34:55;7.20;3.80
33903;DHT22;20194;50.950;5.346;2023-03-16T02:37:21;7.10;2.50
33903;DHT22;20194;50.950;5.346;2023-03-16T02:39:46;7.00;5.40
33903;DHT22;20194;50.950;5.346;2023-03-16T02:42:15;7.00;5.90
33903;DHT22;20194;50.950;5.346;2023-03-16T02:44:41;7.00;5.50
33903;DHT22;20194;50.950;5.346;2023-03-16T02:49:49;6.80;8.40
33903;DHT22;20194;50.950;5.346;2023-03-16T02:52:15;6.80;8.50
33903;DHT22;20194;50.950;5.346;2023-03-16T02:54:41;6.90;8.00
33903;DHT22;20194;50.950;5.346;2023-03-16T02:57:06;6.90;9.00
33903;DHT22;20194;50.950;5.346;2023-03-16T02:59:32;6.90;8.90
33903;DHT22;20194;50.950;5.346;2023-03-16T03:01:58;6.90;9.20
33903;DHT22;20194;50.950;5.346;2023-03-16T03:04:23;6.90;9.10
33903;DHT22;20194;50.950;5.346;2023-03-16T03:06:50;6.80;10.30
33903;DHT22;20194;50.950;5.346;2023-03-16T03:09:17;6.90;11.00
33903;DHT22;20194;50.950;5.346;2023-03-16T03:11:44;6.90;10.20
33903;DHT22;20194;50.950;5.346;2023-03-16T03:14:11;6.90;9.80
33903;DHT22;20194;50.950;5.346;2023-03-16T03:16:37;6.90;11.70
33903;DHT22;20194;50.950;5.346;2023-03-16T03:19:03;6.90;12.50
33903;DHT22;20194;50.950;5.346;2023-03-16T03:21:28;6.90;12.80
33903;DHT22;20194;50.950;5.346;2023-03-16T03:23:54;6.90;12.50
33903;DHT22;20194;50.950;5.346;2023-03-16T03:26:20;6.90;13.20
33903;DHT22;20194;50.950;5.346;2023-03-16T03:28:46;7.00;13.30
33903;DHT22;20194;50.950;5.346;2023-03-16T03:31:14;7.10;12.50
33903;DHT22;20194;50.950;5.346;2023-03-16T03:33:40;7.10;12.60
33903;DHT22;20194;50.950;5.346;2023-03-16T03:36:06;7.00;14.50
33903;DHT22;20194;50.950;5.346;2023-03-16T03:38:31;7.00;15.40
33903;DHT22;20194;50.950;5.346;2023-03-16T03:40:57;7.00;17.40
33903;DHT22;20194;50.950;5.346;2023-03-16T03:43:26;6.90;18.90
33903;DHT22;20194;50.950;5.346;2023-03-16T03:46:01;7.00;19.30
33903;DHT22;20194;50.950;5.346;2023-03-16T03:48:29;6.90;21.10
33903;DHT22;20194;50.950;5.346;2023-03-16T03:50:54;6.90;20.10
33903;DHT22;20194;50.950;5.346;2023-03-16T03:53:20;6.90;22.00
33903;DHT22;20194;50.950;5.346;2023-03-16T03:55:47;7.00;20.10
33903;DHT22;20194;50.950;5.346;2023-03-16T03:58:14;7.00;20.40
33903;DHT22;20194;50.950;5.346;2023-03-16T04:00:39;6.90;20.90
33903;DHT22;20194;50.950;5.346;2023-03-16T04:03:05;6.90;21.80
33903;DHT22;20194;50.950;5.346;2023-03-16T04:05:31;6.90;22.30
33903;DHT22;20194;50.950;5.346;2023-03-16T04:07:57;7.00;21.50
33903;DHT22;20194;50.950;5.346;2023-03-16T04:10:27;6.90;22.50
33903;DHT22;20194;50.950;5.346;2023-03-16T04:12:55;6.90;22.90
33903;DHT22;20194;50.950;5.346;2023-03-16T04:15:21;6.90;22.80
33903;DHT22;20194;50.950;5.346;2023-03-16T04:17:48;6.90;22.50
33903;DHT22;20194;50.950;5.346;2023-03-16T04:20:14;6.90;23.90
33903;DHT22;20194;50.950;5.346;2023-03-16T04:22:43;6.80;24.10
33903;DHT22;20194;50.950;5.346;2023-03-16T04:25:10;6.80;23.90
33903;DHT22;20194;50.950;5.346;2023-03-16T04:27:36;6.90;24.30
33903;DHT22;20194;50.950;5.346;2023-03-16T04:30:06;7.00;23.00
33903;DHT22;20194;50.950;5.346;2023-03-16T04:32:33;7.10;21.90
33903;DHT22;20194;50.950;5.346;2023-03-16T04:34:59;7.20;20.10
33903;DHT22;20194;50.950;5.346;2023-03-16T04:37:26;7.20;19.20
33903;DHT22;20194;50.950;5.346;2023-03-16T04:39:52;7.10;19.80
33903;DHT22;20194;50.950;5.346;2023-03-16T04:42:17;7.10;18.90
33903;DHT22;20194;50.950;5.346;2023-03-16T04:44:43;7.10;17.80
33903;DHT22;20194;50.950;5.346;2023-03-16T04:47:10;7.10;18.00
33903;DHT22;20194;50.950;5.346;2023-03-16T04:49:36;7.20;16.10
33903;DHT22;20194;50.950;5.346;2023-03-16T04:52:01;7.10;15.70
33903;DHT22;20194;50.950;5.346;2023-03-16T04:54:28;7.10;17.50
33903;DHT22;20194;50.950;5.346;2023-03-16T04:56:54;7.20;15.20
33903;DHT22;20194;50.950;5.346;2023-03-16T04:59:19;7.20;15.00
33903;DHT22;20194;50.950;5.346;2023-03-16T05:01:45;7.30;13.80
33903;DHT22;20194;50.950;5.346;2023-03-16T05:04:11;7.30;12.50
33903;DHT22;20194;50.950;5.346;2023-03-16T05:06:37;7.30;12.80
33903;DHT22;20194;50.950;5.346;2023-03-16T05:09:02;7.40;12.40
33903;DHT22;20194;50.950;5.346;2023-03-16T05:11:30;7.30;10.00
33903;DHT22;20194;50.950;5.346;2023-03-16T05:13:56;7.30;9.70
33903;DHT22;20194;50.950;5.346;2023-03-16T05:16:22;7.10;12.30
33903;DHT22;20194;50.950;5.346;2023-03-16T05:18:48;7.10;13.30
33903;DHT22;20194;50.950;5.346;2023-03-16T05:21:13;7.00;15.30
33903;DHT22;20194;50.950;5.346;2023-03-16T05:23:39;6.90;17.10
33903;DHT22;20194;50.950;5.346;2023-03-16T05:26:05;6.80;19.20
33903;DHT22;20194;50.950;5.346;2023-03-16T05:28:32;6.80;22.20
33903;DHT22;20194;50.950;5.346;2023-03-16T05:30:57;6.70;22.70
33903;DHT22;20194;50.950;5.346;2023-03-16T05:33:23;6.90;22.70
33903;DHT22;20194;50.950;5.346;2023-03-16T05:35:50;7.00;20.10
33903;DHT22;20194;50.950;5.346;2023-03-16T05:38:16;7.10;19.60
33903;DHT22;20194;50.950;5.346;2023-03-16T05:40:42;7.20;17.60
33903;DHT22;20194;50.950;5.346;2023-03-16T05:43:08;7.30;16.50
33903;DHT22;20194;50.950;5.346;2023-03-16T05:45:34;7.20;17.20
33903;DHT22;20194;50.950;5.346;2023-03-16T05:47:59;7.20;17.70
33903;DHT22;20194;50.950;5.346;2023-03-16T05:50:25;7.20;17.30
33903;DHT22;20194;50.950;5.346;2023-03-16T05:52:51;7.40;16.80
33903;DHT22;20194;50.950;5.346;2023-03-16T05:55:17;7.30;16.60
33903;DHT22;20194;50.950;5.346;2023-03-16T05:57:43;7.40;16.50
33903;DHT22;20194;50.950;5.346;2023-03-16T06:00:10;7.40;16.20
33903;DHT22;20194;50.950;5.346;2023-03-16T06:02:39;7.40;18.10
33903;DHT22;20194;50.950;5.346;2023-03-16T06:05:06;7.20;19.10
33903;DHT22;20194;50.950;5.346;2023-03-16T06:07:32;7.20;20.20
33903;DHT22;20194;50.950;5.346;2023-03-16T06:09:58;7.00;21.60
33903;DHT22;20194;50.950;5.346;2023-03-16T06:12:24;7.00;21.10
33903;DHT22;20194;50.950;5.346;2023-03-16T06:14:49;7.20;19.90
33903;DHT22;20194;50.950;5.346;2023-03-16T06:17:15;7.40;18.90
33903;DHT22;20194;50.950;5.346;2023-03-16T06:19:41;7.50;15.80
33903;DHT22;20194;50.950;5.346;2023-03-16T06:22:06;7.50;16.70
33903;DHT22;20194;50.950;5.346;2023-03-16T06:24:33;7.50;15.30
33903;DHT22;20194;50.950;5.346;2023-03-16T06:26:59;7.60;14.00
33903;DHT22;20194;50.950;5.346;2023-03-16T06:29:24;7.70;13.40
33903;DHT22;20194;50.950;5.346;2023-03-16T06:31:50;7.80;13.00
33903;DHT22;20194;50.950;5.346;2023-03-16T06:34:17;7.80;13.20
33903;DHT22;20194;50.950;5.346;2023-03-16T06:36:43;7.80;13.00
33903;DHT22;20194;50.950;5.346;2023-03-16T06:39:09;7.90;13.50
33903;DHT22;20194;50.950;5.346;2023-03-16T06:41:34;8.00;11.30
33903;DHT22;20194;50.950;5.346;2023-03-16T06:44:01;7.90;12.80
33903;DHT22;20194;50.950;5.346;2023-03-16T06:46:27;7.90;15.00
33903;DHT22;20194;50.950;5.346;2023-03-16T06:48:53;8.00;14.90
33903;DHT22;20194;50.950;5.346;2023-03-16T06:51:18;7.90;14.50
33903;DHT22;20194;50.950;5.346;2023-03-16T06:53:44;7.90;15.50
33903;DHT22;20194;50.950;5.346;2023-03-16T06:56:10;7.90;16.00
33903;DHT22;20194;50.950;5.346;2023-03-16T06:58:35;8.00;16.50
33903;DHT22;20194;50.950;5.346;2023-03-16T07:01:04;8.00;13.80
33903;DHT22;20194;50.950;5.346;2023-03-16T07:03:30;7.90;15.30
33903;DHT22;20194;50.950;5.346;2023-03-16T07:05:56;8.00;14.70
33903;DHT22;20194;50.950;5.346;2023-03-16T07:08:22;8.00;15.50
33903;DHT22;20194;50.950;5.346;2023-03-16T07:10:49;7.80;13.80
33903;DHT22;20194;50.950;5.346;2023-03-16T07:13:15;7.80;15.70
33903;DHT22;20194;50.950;5.346;2023-03-16T07:15:41;7.90;15.70
33903;DHT22;20194;50.950;5.346;2023-03-16T07:18:09;7.90;12.80
33903;DHT22;20194;50.950;5.346;2023-03-16T07:20:37;7.80;14.20
33903;DHT22;20194;50.950;5.346;2023-03-16T07:23:02;7.90;14.10
33903;DHT22;20194;50.950;5.346;2023-03-16T07:25:29;8.00;12.70
33903;DHT22;20194;50.950;5.346;2023-03-16T07:27:56;8.00;8.70
33903;DHT22;20194;50.950;5.346;2023-03-16T07:30:22;7.90;11.60
33903;DHT22;20194;50.950;5.346;2023-03-16T07:32:50;7.80;13.20
33903;DHT22;20194;50.950;5.346;2023-03-16T07:35:16;7.80;13.90
33903;DHT22;20194;50.950;5.346;2023-03-16T07:37:41;7.90;11.50
33903;DHT22;20194;50.950;5.346;2023-03-16T07:40:09;8.00;12.50
33903;DHT22;20194;50.950;5.346;2023-03-16T07:42:35;8.20;9.70
33903;DHT22;20194;50.950;5.346;2023-03-16T07:45:02;8.20;2.50
33903;DHT22;20194;50.950;5.346;2023-03-16T07:47:28;8.10;7.50
33903;DHT22;20194;50.950;5.346;2023-03-16T07:49:56;8.00;5.80
33903;DHT22;20194;50.950;5.346;2023-03-16T07:52:22;8.00;7.80
33903;DHT22;20194;50.950;5.346;2023-03-16T07:54:49;8.10;7.10
33903;DHT22;20194;50.950;5.346;2023-03-16T07:57:14;8.10;5.10
33903;DHT22;20194;50.950;5.346;2023-03-16T07:59:40;8.10;4.00
33903;DHT22;20194;50.950;5.346;2023-03-16T08:02:10;8.20;6.00
33903;DHT22;20194;50.950;5.346;2023-03-16T08:04:36;8.20;3.80
33903;DHT22;20194;50.950;5.346;2023-03-16T08:07:02;8.30;5.70
33903;DHT22;20194;50.950;5.346;2023-03-16T08:09:28;8.30;1.60
33903;DHT22;20194;50.950;5.346;2023-03-16T08:11:53;8.20;1.00
33903;DHT22;20194;50.950;5.346;2023-03-16T08:14:19;8.30;1.00
33903;DHT22;20194;50.950;5.346;2023-03-16T08:16:45;8.40;1.00
33903;DHT22;20194;50.950;5.346;2023-03-16T08:19:11;8.20;1.00
33903;DHT22;20194;50.950;5.346;2023-03-16T08:21:37;8.10;1.00
33903;DHT22;20194;50.950;5.346;2023-03-16T08:24:03;8.10;1.00
33903;DHT22;20194;50.950;5.346;2023-03-16T08:26:29;8.20;1.00
33903;DHT22;20194;50.950;5.346;2023-03-16T08:28:54;8.20;1.00
33903;DHT22;20194;50.950;5.346;2023-03-16T08:31:20;8.20;1.00
33903;DHT22;20194;50.950;5.346;2023-03-16T08:33:48;8.40;1.00
33903;DHT22;20194;50.950;5.346;2023-03-16T08:36:16;8.50;1.00
33903;DHT22;20194;50.950;5.346;2023-03-16T08:38:42;8.60;1.00
33903;DHT22;20194;50.950;5.346;2023-03-16T08:41:09;8.60;1.00
33903;DHT22;20194;50.950;5.346;2023-03-16T08:43:37;8.70;1.00
33903;DHT22;20194;50.950;5.346;2023-03-16T08:46:03;8.80;1.00
33903;DHT22;20194;50.950;5.346;2023-03-16T08:48:31;9.00;1.00
33903;DHT22;20194;50.950;5.346;2023-03-16T08:51:01;9.30;1.00
33903;DHT22;20194;50.950;5.346;2023-03-16T08:53:28;9.40;1.00
33903;DHT22;20194;50.950;5.346;2023-03-16T08:56:04;9.40;1.00
33903;DHT22;20194;50.950;5.346;2023-03-16T08:58:34;9.40;1.00
33903;DHT22;20194;50.950;5.346;2023-03-16T09:01:00;9.60;1.00
33903;DHT22;20194;50.950;5.346;2023-03-16T09:03:27;9.80;1.00
33903;DHT22;20194;50.950;5.346;2023-03-16T09:05:53;9.80;1.00
33903;DHT22;20194;50.950;5.346;2023-03-16T09:08:19;9.90;1.00
33903;DHT22;20194;50.950;5.346;2023-03-16T09:10:45;10.00;1.00
33903;DHT22;20194;50.950;5.346;2023-03-16T09:13:11;10.00;1.00
33903;DHT22;20194;50.950;5.346;2023-03-16T09:15:38;10.00;1.00
33903;DHT22;20194;50.950;5.346;2023-03-16T09:18:04;9.90;1.00
33903;DHT22;20194;50.950;5.346;2023-03-16T09:20:30;9.90;1.00
33903;DHT22;20194;50.950;5.346;2023-03-16T09:22:56;9.70;1.00
33903;DHT22;20194;50.950;5.346;2023-03-16T09:25:22;9.70;1.00
33903;DHT22;20194;50.950;5.346;2023-03-16T09:27:50;9.70;1.00
33903;DHT22;20194;50.950;5.346;2023-03-16T09:30:16;10.00;1.00
33903;DHT22;20194;50.950;5.346;2023-03-16T09:32:41;10.30;1.00
33903;DHT22;20194;50.950;5.346;2023-03-16T09:35:08;10.30;1.00
33903;DHT22;20194;50.950;5.346;2023-03-16T09:37:34;10.30;1.00
33903;DHT22;20194;50.950;5.346;2023-03-16T09:40:00;10.40;1.00
33903;DHT22;20194;50.950;5.346;2023-03-16T09:42:40;10.70;1.00
33903;DHT22;20194;50.950;5.346;2023-03-16T09:45:21;11.00;1.00
33903;DHT22;20194;50.950;5.346;2023-03-16T09:47:49;11.30;1.00
33903;DHT22;20194;50.950;5.346;2023-03-16T09:50:25;11.40;1.00
33903;DHT22;20194;50.950;5.346;2023-03-16T09:55:54;11.40;1.00
33903;DHT22;20194;50.950;5.346;2023-03-16T09:58:23;11.50;1.00
33903;DHT22;20194;50.950;5.346;2023-03-16T10:01:06;11.50;1.00
33903;DHT22;20194;50.950;5.346;2023-03-16T10:06:24;11.70;1.00
33903;DHT22;20194;50.950;5.346;2023-03-16T10:09:16;11.70;1.00
33903;DHT22;20194;50.950;5.346;2023-03-16T10:11:52;11.60;1.00
33903;DHT22;20194;50.950;5.346;2023-03-16T10:17:44;11.70;1.00
33903;DHT22;20194;50.950;5.346;2023-03-16T10:22:25;11.70;1.00
33903;DHT22;20194;50.950;5.346;2023-03-16T10:27:44;11.70;1.00
33903;DHT22;20194;50.950;5.346;2023-03-16T10:30:33;11.90;1.00
33903;DHT22;20194;50.950;5.346;2023-03-16T10:33:03;11.90;1.00
33903;DHT22;20194;50.950;5.346;2023-03-16T10:35:54;11.80;1.00
33903;DHT22;20194;50.950;5.346;2023-03-16T10:38:42;11.80;1.00
33903;DHT22;20194;50.950;5.346;2023-03-16T10:41:18;11.70;1.00
33903;DHT22;20194;50.950;5.346;2023-03-16T10:44:00;11.80;1.00
33903;DHT22;20194;50.950;5.346;2023-03-16T10:46:48;11.90;1.00
33903;DHT22;20194;50.950;5.346;2023-03-16T10:51:46;12.10;1.00
33903;DHT22;20194;50.950;5.346;2023-03-16T10:54:34;12.40;1.00
33903;DHT22;20194;50.950;5.346;2023-03-16T10:57:12;12.40;1.00
33903;DHT22;20194;50.950;5.346;2023-03-16T10:59:38;12.40;1.00
33903;DHT22;20194;50.950;5.346;2023-03-16T11:02:16;12.50;1.00
33903;DHT22;20194;50.950;5.346;2023-03-16T11:04:43;12.70;99.90
33903;DHT22;20194;50.950;5.346;2023-03-16T11:07:20;12.70;99.90
33903;DHT22;20194;50.950;5.346;2023-03-16T11:09:53;12.90;1.00
33903;DHT22;20194;50.950;5.346;2023-03-16T11:12:24;13.00;99.90
33903;DHT22;20194;50.950;5.346;2023-03-16T11:14:51;13.30;99.90
33903;DHT22;20194;50.950;5.346;2023-03-16T11:17:27;13.30;99.90
33903;DHT22;20194;50.950;5.346;2023-03-16T11:20:01;13.40;99.90
33903;DHT22;20194;50.950;5.346;2023-03-16T11:22:39;13.60;99.90
33903;DHT22;20194;50.950;5.346;2023-03-16T11:25:12;13.60;99.90
33903;DHT22;20194;50.950;5.346;2023-03-16T11:30:07;13.60;1.00
33903;DHT22;20194;50.950;5.346;2023-03-16T11:32:39;13.40;1.00
33903;DHT22;20194;50.950;5.346;2023-03-16T11:37:47;13.30;1.00
33903;DHT22;20194;50.950;5.346;2023-03-16T11:51:46;13.00;99.90
33903;DHT22;20194;50.950;5.346;2023-03-16T11:55:02;13.10;99.90
33903;DHT22;20194;50.950;5.346;2023-03-16T12:02:53;13.60;99.90
33903;DHT22;20194;50.950;5.346;2023-03-16T12:05:51;13.40;3.10
33903;DHT22;20194;50.950;5.346;2023-03-16T12:11:12;13.50;99.90
33903;DHT22;20194;50.950;5.346;2023-03-16T12:19:22;14.00;1.00
33903;DHT22;20194;50.950;5.346;2023-03-16T12:21:58;13.90;1.00
33903;DHT22;20194;50.950;5.346;2023-03-16T12:24:28;13.90;58.10
33903;DHT22;20194;50.950;5.346;2023-03-16T12:26:56;14.00;99.90
33903;DHT22;20194;50.950;5.346;2023-03-16T12:29:34;14.10;1.00
33903;DHT22;20194;50.950;5.346;2023-03-16T12:32:18;14.10;9.00
33903;DHT22;20194;50.950;5.346;2023-03-16T12:34:47;14.30;12.20
33903;DHT22;20194;50.950;5.346;2023-03-16T12:37:32;14.40;1.00
33903;DHT22;20194;50.950;5.346;2023-03-16T12:40:21;14.50;1.00
33903;DHT22;20194;50.950;5.346;2023-03-16T12:42:59;14.40;1.00
33903;DHT22;20194;50.950;5.346;2023-03-16T12:50:30;14.50;99.90
33903;DHT22;20194;50.950;5.346;2023-03-16T12:52:57;14.40;1.00
33903;DHT22;20194;50.950;5.346;2023-03-16T12:58:00;14.60;99.90
33903;DHT22;20194;50.950;5.346;2023-03-16T13:00:35;14.70;99.90
33903;DHT22;20194;50.950;5.346;2023-03-16T13:03:02;14.60;99.90
33903;DHT22;20194;50.950;5.346;2023-03-16T13:05:31;14.70;1.00
33903;DHT22;20194;50.950;5.346;2023-03-16T13:08:13;14.60;99.90
33903;DHT22;20194;50.950;5.346;2023-03-16T13:10:41;14.60;99.90
33903;DHT22;20194;50.950;5.346;2023-03-16T13:13:12;14.50;87.90
33903;DHT22;20194;50.950;5.346;2023-03-16T13:15:43;14.60;99.90
33903;DHT22;20194;50.950;5.346;2023-03-16T13:21:00;14.50;48.70
33903;DHT22;20194;50.950;5.346;2023-03-16T13:26:17;14.80;1.00
33903;DHT22;20194;50.950;5.346;2023-03-16T13:28:51;14.60;1.00
33903;DHT22;20194;50.950;5.346;2023-03-16T13:31:24;14.70;99.90
33903;DHT22;20194;50.950;5.346;2023-03-16T13:33:55;14.70;1.00
33903;DHT22;20194;50.950;5.346;2023-03-16T13:36:26;14.90;10.50
33903;DHT22;20194;50.950;5.346;2023-03-16T13:39:18;14.70;1.00
33903;DHT22;20194;50.950;5.346;2023-03-16T13:42:23;14.50;1.00
33903;DHT22;20194;50.950;5.346;2023-03-16T13:44:55;14.50;1.00
33903;DHT22;20194;50.950;5.346;2023-03-16T13:47:23;14.50;99.90
33903;DHT22;20194;50.950;5.346;2023-03-16T13:52:29;14.50;1.00
33903;DHT22;20194;50.950;5.346;2023-03-16T13:54:57;14.50;99.90
33903;DHT22;20194;50.950;5.346;2023-03-16T13:57:26;14.60;99.90
33903;DHT22;20194;50.950;5.346;2023-03-16T14:00:23;14.70;83.50
33903;DHT22;20194;50.950;5.346;2023-03-16T14:02:57;14.70;99.90
33903;DHT22;20194;50.950;5.346;2023-03-16T14:05:29;14.70;99.90
33903;DHT22;20194;50.950;5.346;2023-03-16T14:07:55;14.60;99.90
33903;DHT22;20194;50.950;5.346;2023-03-16T14:10:30;14.60;99.90
33903;DHT22;20194;50.950;5.346;2023-03-16T14:13:06;14.70;99.90
33903;DHT22;20194;50.950;5.346;2023-03-16T14:15:35;14.70;28.60
33903;DHT22;20194;50.950;5.346;2023-03-16T14:18:15;14.70;1.00
33903;DHT22;20194;50.950;5.346;2023-03-16T14:20:46;14.80;99.90
33903;DHT22;20194;50.950;5.346;2023-03-16T14:23:21;14.80;99.90
33903;DHT22;20194;50.950;5.346;2023-03-16T14:25:48;14.90;1.00
33903;DHT22;20194;50.950;5.346;2023-03-16T14:28:15;14.80;65.00
33903;DHT22;20194;50.950;5.346;2023-03-16T14:31:04;14.80;1.00
33903;DHT22;20194;50.950;5.346;2023-03-16T14:33:33;14.80;99.90
33903;DHT22;20194;50.950;5.346;2023-03-16T14:36:16;15.00;99.90
33903;DHT22;20194;50.950;5.346;2023-03-16T14:38:45;14.90;1.00
33903;DHT22;20194;50.950;5.346;2023-03-16T14:41:26;14.90;27.20
33903;DHT22;20194;50.950;5.346;2023-03-16T14:43:59;14.90;99.90
33903;DHT22;20194;50.950;5.346;2023-03-16T14:46:30;15.00;1.00
33903;DHT22;20194;50.950;5.346;2023-03-16T14:49:21;15.00;99.90
33903;DHT22;20194;50.950;5.346;2023-03-16T14:51:49;15.00;99.90
33903;DHT22;20194;50.950;5.346;2023-03-16T14:54:18;14.80;99.90
33903;DHT22;20194;50.950;5.346;2023-03-16T14:56:48;14.80;99.90
33903;DHT22;20194;50.950;5.346;2023-03-16T14:59:15;14.70;99.90
33903;DHT22;20194;50.950;5.346;2023-03-16T15:01:41;14.70;1.00
33903;DHT22;20194;50.950;5.346;2023-03-16T15:04:06;14.80;99.90
33903;DHT22;20194;50.950;5.346;2023-03-16T15:06:33;14.80;99.90
33903;DHT22;20194;50.950;5.346;2023-03-16T15:08:59;14.80;1.00
33903;DHT22;20194;50.950;5.346;2023-03-16T15:11:27;14.70;99.90
33903;DHT22;20194;50.950;5.346;2023-03-16T15:13:54;14.70;1.00
33903;DHT22;20194;50.950;5.346;2023-03-16T15:16:28;14.80;99.90
33903;DHT22;20194;50.950;5.346;2023-03-16T15:18:54;14.80;99.90
33903;DHT22;20194;50.950;5.346;2023-03-16T15:21:22;14.90;1.00
33903;DHT22;20194;50.950;5.346;2023-03-16T15:23:48;14.80;99.90
33903;DHT22;20194;50.950;5.346;2023-03-16T15:26:18;14.80;99.90
33903;DHT22;20194;50.950;5.346;2023-03-16T15:28:45;14.70;99.90
33903;DHT22;20194;50.950;5.346;2023-03-16T15:31:12;14.70;1.00
33903;DHT22;20194;50.950;5.346;2023-03-16T15:33:39;14.60;99.90
33903;DHT22;20194;50.950;5.346;2023-03-16T15:36:14;14.60;99.90
33903;DHT22;20194;50.950;5.346;2023-03-16T15:38:43;14.60;1.00
33903;DHT22;20194;50.950;5.346;2023-03-16T15:41:10;14.70;1.00
33903;DHT22;20194;50.950;5.346;2023-03-16T15:43:36;14.70;6.00
33903;DHT22;20194;50.950;5.346;2023-03-16T15:46:02;14.90;99.90
33903;DHT22;20194;50.950;5.346;2023-03-16T15:48:30;14.90;67.70
33903;DHT22;20194;50.950;5.346;2023-03-16T15:51:01;14.90;1.00
33903;DHT22;20194;50.950;5.346;2023-03-16T15:53:38;15.00;1.00
33903;DHT22;20194;50.950;5.346;2023-03-16T15:56:12;14.90;36.00
33903;DHT22;20194;50.950;5.346;2023-03-16T15:58:43;14.90;1.00
33903;DHT22;20194;50.950;5.346;2023-03-16T16:01:24;15.00;1.00
33903;DHT22;20194;50.950;5.346;2023-03-16T16:03:51;15.00;99.90
33903;DHT22;20194;50.950;5.346;2023-03-16T16:06:18;14.90;99.90
33903;DHT22;20194;50.950;5.346;2023-03-16T16:08:44;15.00;1.00
33903;DHT22;20194;50.950;5.346;2023-03-16T16:11:30;14.90;1.00
33903;DHT22;20194;50.950;5.346;2023-03-16T16:13:57;14.70;11.00
33903;DHT22;20194;50.950;5.346;2023-03-16T16:16:25;14.70;1.00
33903;DHT22;20194;50.950;5.346;2023-03-16T16:18:53;14.70;99.90
33903;DHT22;20194;50.950;5.346;2023-03-16T16:21:21;14.60;99.90
33903;DHT22;20194;50.950;5.346;2023-03-16T16:23:47;14.60;99.90
33903;DHT22;20194;50.950;5.346;2023-03-16T16:26:37;14.50;1.00
33903;DHT22;20194;50.950;5.346;2023-03-16T16:29:16;14.40;1.00
33903;DHT22;20194;50.950;5.346;2023-03-16T16:31:43;14.40;1.00
33903;DHT22;20194;50.950;5.346;2023-03-16T16:34:13;14.40;1.00
33903;DHT22;20194;50.950;5.346;2023-03-16T16:36:39;14.30;1.00
33903;DHT22;20194;50.950;5.346;2023-03-16T16:39:05;14.30;21.80
33903;DHT22;20194;50.950;5.346;2023-03-16T16:41:32;14.30;1.00
33903;DHT22;20194;50.950;5.346;2023-03-16T16:44:00;14.30;99.90
33903;DHT22;20194;50.950;5.346;2023-03-16T16:46:36;14.30;99.90
33903;DHT22;20194;50.950;5.346;2023-03-16T16:49:09;14.30;99.90
33903;DHT22;20194;50.950;5.346;2023-03-16T16:51:38;14.30;99.90
33903;DHT22;20194;50.950;5.346;2023-03-16T16:54:16;14.30;99.90
33903;DHT22;20194;50.950;5.346;2023-03-16T16:56:42;14.30;99.90
33903;DHT22;20194;50.950;5.346;2023-03-16T16:59:19;14.30;99.90
33903;DHT22;20194;50.950;5.346;2023-03-16T17:01:47;14.30;99.90
33903;DHT22;20194;50.950;5.346;2023-03-16T17:04:18;14.20;1.00
33903;DHT22;20194;50.950;5.346;2023-03-16T17:06:44;14.10;1.00
33903;DHT22;20194;50.950;5.346;2023-03-16T17:09:11;14.10;1.00
33903;DHT22;20194;50.950;5.346;2023-03-16T17:11:40;14.00;1.00
33903;DHT22;20194;50.950;5.346;2023-03-16T17:14:07;14.00;1.00
33903;DHT22;20194;50.950;5.346;2023-03-16T17:16:35;14.00;1.00
33903;DHT22;20194;50.950;5.346;2023-03-16T17:19:05;14.00;1.00
33903;DHT22;20194;50.950;5.346;2023-03-16T17:21:31;13.90;1.00
33903;DHT22;20194;50.950;5.346;2023-03-16T17:23:57;13.80;1.00